sensor_id;sensor_type;location;lat;lon;timestamp;P1;durP1;ratioP1;P2;durP2;ratioP2
54545;SDS011;40444;45.184;9.850;2024-01-25T00:01:36;74.80;;;48.45;;
54545;SDS011;40444;45.184;9.850;2024-01-25T00:04:04;76.15;;;49.33;;
54545;SDS011;40444;45.184;9.850;2024-01-25T00:06:32;69.90;;;44.85;;
54545;SDS011;40444;45.184;9.850;2024-01-25T00:09:01;75.50;;;49.10;;
54545;SDS011;40444;45.184;9.850;2024-01-25T00:11:34;76.72;;;50.00;;
54545;SDS011;40444;45.184;9.850;2024-01-25T00:14:03;78.68;;;52.00;;
54545;SDS011;40444;45.184;9.850;2024-01-25T00:16:33;83.53;;;53.67;;
54545;SDS011;40444;45.184;9.850;2024-01-25T00:19:01;75.15;;;50.97;;
54545;SDS011;40444;45.184;9.850;2024-01-25T00:21:30;74.93;;;48.92;;
54545;SDS011;40444;45.184;9.850;2024-01-25T00:23:59;74.00;;;48.50;;
54545;SDS011;40444;45.184;9.850;2024-01-25T00:26:27;74.93;;;47.97;;
54545;SDS011;40444;45.184;9.850;2024-01-25T00:28:56;68.75;;;46.63;;
54545;SDS011;40444;45.184;9.850;2024-01-25T00:31:24;73.25;;;49.65;;
54545;SDS011;40444;45.184;9.850;2024-01-25T00:33:52;66.82;;;44.65;;
54545;SDS011;40444;45.184;9.850;2024-01-25T00:36:21;63.00;;;44.13;;
54545;SDS011;40444;45.184;9.850;2024-01-25T00:38:50;71.75;;;48.13;;
54545;SDS011;40444;45.184;9.850;2024-01-25T00:41:18;74.55;;;47.78;;
54545;SDS011;40444;45.184;9.850;2024-01-25T00:43:47;74.47;;;49.28;;
54545;SDS011;40444;45.184;9.850;2024-01-25T00:46:17;83.60;;;51.45;;
54545;SDS011;40444;45.184;9.850;2024-01-25T00:48:46;77.13;;;51.47;;
54545;SDS011;40444;45.184;9.850;2024-01-25T00:51:15;81.25;;;50.22;;
54545;SDS011;40444;45.184;9.850;2024-01-25T00:53:49;70.18;;;48.35;;
54545;SDS011;40444;45.184;9.850;2024-01-25T00:56:17;79.40;;;50.03;;
54545;SDS011;40444;45.184;9.850;2024-01-25T00:58:46;71.75;;;47.70;;
54545;SDS011;40444;45.184;9.850;2024-01-25T01:01:15;70.95;;;47.75;;
54545;SDS011;40444;45.184;9.850;2024-01-25T01:03:47;87.53;;;54.17;;
54545;SDS011;40444;45.184;9.850;2024-01-25T01:06:21;77.97;;;49.33;;
54545;SDS011;40444;45.184;9.850;2024-01-25T01:08:50;77.90;;;51.90;;
54545;SDS011;40444;45.184;9.850;2024-01-25T01:11:18;84.22;;;54.20;;
54545;SDS011;40444;45.184;9.850;2024-01-25T01:13:47;84.43;;;53.50;;
54545;SDS011;40444;45.184;9.850;2024-01-25T01:16:15;86.78;;;54.25;;
54545;SDS011;40444;45.184;9.850;2024-01-25T01:18:44;82.20;;;52.60;;
54545;SDS011;40444;45.184;9.850;2024-01-25T01:21:13;83.07;;;51.88;;
54545;SDS011;40444;45.184;9.850;2024-01-25T01:23:42;87.10;;;53.08;;
54545;SDS011;40444;45.184;9.850;2024-01-25T01:26:11;80.63;;;50.38;;
54545;SDS011;40444;45.184;9.850;2024-01-25T01:28:39;77.32;;;50.33;;
54545;SDS011;40444;45.184;9.850;2024-01-25T01:31:08;86.20;;;52.78;;
54545;SDS011;40444;45.184;9.850;2024-01-25T01:33:36;84.07;;;54.42;;
54545;SDS011;40444;45.184;9.850;2024-01-25T01:36:05;87.88;;;53.28;;
54545;SDS011;40444;45.184;9.850;2024-01-25T01:38:35;86.25;;;53.25;;
54545;SDS011;40444;45.184;9.850;2024-01-25T01:41:03;83.43;;;55.03;;
54545;SDS011;40444;45.184;9.850;2024-01-25T01:43:31;83.60;;;53.97;;
54545;SDS011;40444;45.184;9.850;2024-01-25T01:46:01;87.18;;;53.28;;
54545;SDS011;40444;45.184;9.850;2024-01-25T01:48:40;89.95;;;53.92;;
54545;SDS011;40444;45.184;9.850;2024-01-25T01:51:10;85.28;;;53.78;;
54545;SDS011;40444;45.184;9.850;2024-01-25T01:53:40;86.47;;;52.08;;
54545;SDS011;40444;45.184;9.850;2024-01-25T01:56:08;73.85;;;49.08;;
54545;SDS011;40444;45.184;9.850;2024-01-25T01:58:38;75.63;;;49.97;;
54545;SDS011;40444;45.184;9.850;2024-01-25T02:01:07;76.60;;;49.38;;
54545;SDS011;40444;45.184;9.850;2024-01-25T02:03:36;77.85;;;48.67;;
54545;SDS011;40444;45.184;9.850;2024-01-25T02:06:05;76.30;;;48.17;;
54545;SDS011;40444;45.184;9.850;2024-01-25T02:08:34;73.32;;;48.33;;
54545;SDS011;40444;45.184;9.850;2024-01-25T02:11:02;77.30;;;49.63;;
54545;SDS011;40444;45.184;9.850;2024-01-25T02:13:31;75.88;;;49.53;;
54545;SDS011;40444;45.184;9.850;2024-01-25T02:16:00;77.28;;;48.92;;
54545;SDS011;40444;45.184;9.850;2024-01-25T02:18:28;74.78;;;48.75;;
54545;SDS011;40444;45.184;9.850;2024-01-25T02:20:58;77.72;;;50.78;;
54545;SDS011;40444;45.184;9.850;2024-01-25T02:23:27;84.82;;;51.00;;
54545;SDS011;40444;45.184;9.850;2024-01-25T02:25:56;82.90;;;50.10;;
54545;SDS011;40444;45.184;9.850;2024-01-25T02:28:25;76.80;;;48.55;;
54545;SDS011;40444;45.184;9.850;2024-01-25T02:30:54;85.57;;;53.05;;
54545;SDS011;40444;45.184;9.850;2024-01-25T02:33:22;79.00;;;50.22;;
54545;SDS011;40444;45.184;9.850;2024-01-25T02:35:51;78.10;;;49.08;;
54545;SDS011;40444;45.184;9.850;2024-01-25T02:38:19;79.93;;;51.17;;
54545;SDS011;40444;45.184;9.850;2024-01-25T02:40:48;73.72;;;46.88;;
54545;SDS011;40444;45.184;9.850;2024-01-25T02:43:18;69.45;;;46.10;;
54545;SDS011;40444;45.184;9.850;2024-01-25T02:45:46;79.13;;;48.90;;
54545;SDS011;40444;45.184;9.850;2024-01-25T02:48:17;74.05;;;47.20;;
54545;SDS011;40444;45.184;9.850;2024-01-25T02:50:45;72.63;;;45.70;;
54545;SDS011;40444;45.184;9.850;2024-01-25T02:53:14;71.75;;;48.13;;
54545;SDS011;40444;45.184;9.850;2024-01-25T02:55:43;79.15;;;46.63;;
54545;SDS011;40444;45.184;9.850;2024-01-25T02:58:11;77.95;;;47.55;;
54545;SDS011;40444;45.184;9.850;2024-01-25T03:00:43;76.18;;;49.17;;
54545;SDS011;40444;45.184;9.850;2024-01-25T03:03:12;79.00;;;47.38;;
54545;SDS011;40444;45.184;9.850;2024-01-25T03:05:41;75.97;;;48.55;;
54545;SDS011;40444;45.184;9.850;2024-01-25T03:08:10;78.55;;;48.58;;
54545;SDS011;40444;45.184;9.850;2024-01-25T03:10:38;74.70;;;46.03;;
54545;SDS011;40444;45.184;9.850;2024-01-25T03:13:07;69.97;;;44.63;;
54545;SDS011;40444;45.184;9.850;2024-01-25T03:15:36;71.72;;;44.83;;
54545;SDS011;40444;45.184;9.850;2024-01-25T03:18:38;80.60;;;48.30;;
54545;SDS011;40444;45.184;9.850;2024-01-25T03:21:07;80.07;;;46.92;;
54545;SDS011;40444;45.184;9.850;2024-01-25T03:23:38;76.82;;;49.20;;
54545;SDS011;40444;45.184;9.850;2024-01-25T03:26:07;73.40;;;46.35;;
54545;SDS011;40444;45.184;9.850;2024-01-25T03:28:36;69.53;;;45.70;;
54545;SDS011;40444;45.184;9.850;2024-01-25T03:31:07;69.20;;;43.83;;
54545;SDS011;40444;45.184;9.850;2024-01-25T03:33:35;70.03;;;45.10;;
54545;SDS011;40444;45.184;9.850;2024-01-25T03:36:05;63.20;;;42.50;;
54545;SDS011;40444;45.184;9.850;2024-01-25T03:38:34;71.72;;;45.00;;
54545;SDS011;40444;45.184;9.850;2024-01-25T03:41:06;73.32;;;46.53;;
54545;SDS011;40444;45.184;9.850;2024-01-25T03:43:35;71.75;;;46.28;;
54545;SDS011;40444;45.184;9.850;2024-01-25T03:46:14;73.55;;;46.10;;
54545;SDS011;40444;45.184;9.850;2024-01-25T03:48:42;75.35;;;47.15;;
54545;SDS011;40444;45.184;9.850;2024-01-25T03:51:10;80.72;;;49.25;;
54545;SDS011;40444;45.184;9.850;2024-01-25T03:53:39;77.13;;;47.58;;
54545;SDS011;40444;45.184;9.850;2024-01-25T03:56:11;80.38;;;49.45;;
54545;SDS011;40444;45.184;9.850;2024-01-25T03:58:45;85.45;;;51.10;;
54545;SDS011;40444;45.184;9.850;2024-01-25T04:01:15;79.55;;;49.55;;
54545;SDS011;40444;45.184;9.850;2024-01-25T04:03:44;89.95;;;55.05;;
54545;SDS011;40444;45.184;9.850;2024-01-25T04:06:16;78.75;;;50.80;;
54545;SDS011;40444;45.184;9.850;2024-01-25T04:08:47;73.85;;;47.35;;
54545;SDS011;40444;45.184;9.850;2024-01-25T04:11:16;73.60;;;47.35;;
54545;SDS011;40444;45.184;9.850;2024-01-25T04:13:45;73.53;;;47.15;;
54545;SDS011;40444;45.184;9.850;2024-01-25T04:16:14;77.40;;;49.55;;
54545;SDS011;40444;45.184;9.850;2024-01-25T04:18:42;74.63;;;47.97;;
54545;SDS011;40444;45.184;9.850;2024-01-25T04:21:12;76.28;;;48.88;;
54545;SDS011;40444;45.184;9.850;2024-01-25T04:23:40;64.15;;;44.65;;
54545;SDS011;40444;45.184;9.850;2024-01-25T04:26:09;70.25;;;46.50;;
54545;SDS011;40444;45.184;9.850;2024-01-25T04:28:37;77.18;;;50.40;;
54545;SDS011;40444;45.184;9.850;2024-01-25T04:31:06;88.70;;;57.08;;
54545;SDS011;40444;45.184;9.850;2024-01-25T04:33:34;97.05;;;59.63;;
54545;SDS011;40444;45.184;9.850;2024-01-25T04:36:03;94.80;;;58.47;;
54545;SDS011;40444;45.184;9.850;2024-01-25T04:38:32;98.97;;;58.17;;
54545;SDS011;40444;45.184;9.850;2024-01-25T04:41:00;101.45;;;59.67;;
54545;SDS011;40444;45.184;9.850;2024-01-25T04:43:32;105.18;;;59.88;;
54545;SDS011;40444;45.184;9.850;2024-01-25T04:46:03;106.18;;;62.42;;
54545;SDS011;40444;45.184;9.850;2024-01-25T04:48:32;100.85;;;58.70;;
54545;SDS011;40444;45.184;9.850;2024-01-25T04:51:01;106.18;;;62.08;;
54545;SDS011;40444;45.184;9.850;2024-01-25T04:53:29;96.72;;;57.75;;
54545;SDS011;40444;45.184;9.850;2024-01-25T04:55:58;100.10;;;60.33;;
54545;SDS011;40444;45.184;9.850;2024-01-25T04:58:27;95.32;;;58.67;;
54545;SDS011;40444;45.184;9.850;2024-01-25T05:00:56;111.78;;;62.70;;
54545;SDS011;40444;45.184;9.850;2024-01-25T05:03:25;102.57;;;58.80;;
54545;SDS011;40444;45.184;9.850;2024-01-25T05:05:53;108.80;;;63.13;;
54545;SDS011;40444;45.184;9.850;2024-01-25T18:52:37;102.60;;;59.83;;
54545;SDS011;40444;45.184;9.850;2024-01-25T18:55:27;120.53;;;68.00;;
54545;SDS011;40444;45.184;9.850;2024-01-25T18:58:40;122.05;;;69.95;;
54545;SDS011;40444;45.184;9.850;2024-01-25T19:02:08;106.65;;;65.32;;
54545;SDS011;40444;45.184;9.850;2024-01-25T19:04:42;107.55;;;61.30;;
54545;SDS011;40444;45.184;9.850;2024-01-25T19:07:17;104.95;;;62.33;;
54545;SDS011;40444;45.184;9.850;2024-01-25T19:09:47;96.65;;;57.55;;
54545;SDS011;40444;45.184;9.850;2024-01-25T19:12:16;95.10;;;56.80;;
54545;SDS011;40444;45.184;9.850;2024-01-25T19:14:45;92.30;;;55.83;;
54545;SDS011;40444;45.184;9.850;2024-01-25T19:17:14;98.60;;;60.45;;
54545;SDS011;40444;45.184;9.850;2024-01-25T19:19:57;101.72;;;62.53;;
54545;SDS011;40444;45.184;9.850;2024-01-25T19:22:39;96.72;;;58.60;;
54545;SDS011;40444;45.184;9.850;2024-01-25T19:25:09;79.35;;;49.00;;
54545;SDS011;40444;45.184;9.850;2024-01-25T19:27:57;87.20;;;51.92;;
54545;SDS011;40444;45.184;9.850;2024-01-25T19:30:26;87.20;;;54.35;;
54545;SDS011;40444;45.184;9.850;2024-01-25T19:33:05;91.57;;;55.92;;
54545;SDS011;40444;45.184;9.850;2024-01-25T19:35:37;85.93;;;54.33;;
54545;SDS011;40444;45.184;9.850;2024-01-25T19:38:08;85.50;;;52.75;;
54545;SDS011;40444;45.184;9.850;2024-01-25T19:40:38;92.07;;;56.97;;
54545;SDS011;40444;45.184;9.850;2024-01-25T19:43:22;99.18;;;60.65;;
54545;SDS011;40444;45.184;9.850;2024-01-25T19:45:53;99.43;;;57.53;;
54545;SDS011;40444;45.184;9.850;2024-01-25T19:48:22;95.55;;;58.22;;
54545;SDS011;40444;45.184;9.850;2024-01-25T19:51:15;97.32;;;59.97;;
54545;SDS011;40444;45.184;9.850;2024-01-25T19:53:47;98.07;;;61.60;;
54545;SDS011;40444;45.184;9.850;2024-01-25T19:56:19;103.45;;;60.97;;
54545;SDS011;40444;45.184;9.850;2024-01-25T19:58:48;94.97;;;58.30;;
54545;SDS011;40444;45.184;9.850;2024-01-25T20:01:18;93.13;;;57.50;;
54545;SDS011;40444;45.184;9.850;2024-01-25T20:04:05;97.20;;;56.85;;
54545;SDS011;40444;45.184;9.850;2024-01-25T20:06:41;96.43;;;59.20;;
54545;SDS011;40444;45.184;9.850;2024-01-25T20:09:19;96.07;;;59.88;;
54545;SDS011;40444;45.184;9.850;2024-01-25T20:12:06;102.53;;;62.85;;
54545;SDS011;40444;45.184;9.850;2024-01-25T20:14:35;100.30;;;59.72;;
54545;SDS011;40444;45.184;9.850;2024-01-25T20:17:06;101.07;;;62.05;;
54545;SDS011;40444;45.184;9.850;2024-01-25T20:19:35;104.65;;;63.83;;
54545;SDS011;40444;45.184;9.850;2024-01-25T20:22:12;107.90;;;65.65;;
54545;SDS011;40444;45.184;9.850;2024-01-25T20:24:46;109.00;;;64.93;;
54545;SDS011;40444;45.184;9.850;2024-01-25T20:27:27;105.15;;;62.10;;
54545;SDS011;40444;45.184;9.850;2024-01-25T20:30:10;103.57;;;62.60;;
54545;SDS011;40444;45.184;9.850;2024-01-25T20:33:11;99.68;;;58.58;;
54545;SDS011;40444;45.184;9.850;2024-01-25T20:35:41;86.30;;;53.40;;
54545;SDS011;40444;45.184;9.850;2024-01-25T20:38:12;84.47;;;53.90;;
54545;SDS011;40444;45.184;9.850;2024-01-25T20:40:46;79.57;;;51.58;;
54545;SDS011;40444;45.184;9.850;2024-01-25T20:43:14;84.72;;;52.42;;
54545;SDS011;40444;45.184;9.850;2024-01-25T20:45:44;88.28;;;55.20;;
54545;SDS011;40444;45.184;9.850;2024-01-25T20:48:12;97.82;;;58.65;;
54545;SDS011;40444;45.184;9.850;2024-01-25T20:50:41;99.15;;;60.00;;
54545;SDS011;40444;45.184;9.850;2024-01-25T20:53:09;99.07;;;60.53;;
54545;SDS011;40444;45.184;9.850;2024-01-25T20:55:38;96.07;;;57.95;;
54545;SDS011;40444;45.184;9.850;2024-01-25T20:58:16;97.93;;;60.70;;
54545;SDS011;40444;45.184;9.850;2024-01-25T21:00:45;91.53;;;55.97;;
54545;SDS011;40444;45.184;9.850;2024-01-25T21:03:15;89.78;;;55.17;;
54545;SDS011;40444;45.184;9.850;2024-01-25T21:05:45;90.43;;;55.33;;
54545;SDS011;40444;45.184;9.850;2024-01-25T21:08:14;87.07;;;55.55;;
54545;SDS011;40444;45.184;9.850;2024-01-25T21:10:43;88.82;;;54.40;;
54545;SDS011;40444;45.184;9.850;2024-01-25T21:13:12;90.03;;;55.35;;
54545;SDS011;40444;45.184;9.850;2024-01-25T21:15:44;92.43;;;55.10;;
54545;SDS011;40444;45.184;9.850;2024-01-25T21:18:22;85.25;;;53.53;;
54545;SDS011;40444;45.184;9.850;2024-01-25T21:20:52;88.32;;;53.05;;
54545;SDS011;40444;45.184;9.850;2024-01-25T21:23:20;91.38;;;57.03;;
54545;SDS011;40444;45.184;9.850;2024-01-25T21:25:49;93.80;;;56.80;;
54545;SDS011;40444;45.184;9.850;2024-01-25T21:28:23;96.15;;;56.13;;
54545;SDS011;40444;45.184;9.850;2024-01-25T21:30:54;92.00;;;55.25;;
54545;SDS011;40444;45.184;9.850;2024-01-25T21:33:26;88.88;;;54.13;;
54545;SDS011;40444;45.184;9.850;2024-01-25T21:35:56;84.72;;;50.78;;
54545;SDS011;40444;45.184;9.850;2024-01-25T21:38:26;85.53;;;51.40;;
54545;SDS011;40444;45.184;9.850;2024-01-25T21:40:56;86.43;;;51.40;;
54545;SDS011;40444;45.184;9.850;2024-01-25T21:43:26;91.25;;;53.60;;
54545;SDS011;40444;45.184;9.850;2024-01-25T21:45:55;87.22;;;53.50;;
54545;SDS011;40444;45.184;9.850;2024-01-25T21:48:23;94.53;;;56.95;;
54545;SDS011;40444;45.184;9.850;2024-01-25T21:50:54;93.53;;;57.83;;
54545;SDS011;40444;45.184;9.850;2024-01-25T21:53:25;92.95;;;59.13;;
54545;SDS011;40444;45.184;9.850;2024-01-25T21:55:54;85.68;;;53.90;;
54545;SDS011;40444;45.184;9.850;2024-01-25T21:58:23;86.68;;;54.08;;
54545;SDS011;40444;45.184;9.850;2024-01-25T22:00:55;87.72;;;54.88;;
54545;SDS011;40444;45.184;9.850;2024-01-25T22:03:28;87.13;;;52.22;;
54545;SDS011;40444;45.184;9.850;2024-01-25T22:05:57;91.38;;;54.63;;
54545;SDS011;40444;45.184;9.850;2024-01-25T22:08:26;93.43;;;57.55;;
54545;SDS011;40444;45.184;9.850;2024-01-25T22:10:54;94.85;;;58.00;;
54545;SDS011;40444;45.184;9.850;2024-01-25T22:13:23;103.47;;;61.63;;
54545;SDS011;40444;45.184;9.850;2024-01-25T22:15:55;102.22;;;61.33;;
54545;SDS011;40444;45.184;9.850;2024-01-25T22:18:24;101.93;;;61.50;;
54545;SDS011;40444;45.184;9.850;2024-01-25T22:20:53;96.63;;;61.65;;
54545;SDS011;40444;45.184;9.850;2024-01-25T22:23:21;102.32;;;60.47;;
54545;SDS011;40444;45.184;9.850;2024-01-25T22:25:51;103.00;;;62.28;;
54545;SDS011;40444;45.184;9.850;2024-01-25T22:28:19;106.88;;;64.07;;
54545;SDS011;40444;45.184;9.850;2024-01-25T22:30:48;98.18;;;60.22;;
54545;SDS011;40444;45.184;9.850;2024-01-25T22:33:17;97.82;;;61.30;;
54545;SDS011;40444;45.184;9.850;2024-01-25T22:35:46;95.07;;;58.35;;
54545;SDS011;40444;45.184;9.850;2024-01-25T22:38:14;101.78;;;61.70;;
54545;SDS011;40444;45.184;9.850;2024-01-25T22:40:43;99.35;;;58.95;;
54545;SDS011;40444;45.184;9.850;2024-01-25T22:43:12;95.85;;;58.08;;
54545;SDS011;40444;45.184;9.850;2024-01-25T22:45:41;97.65;;;58.60;;
54545;SDS011;40444;45.184;9.850;2024-01-25T22:48:10;86.95;;;55.17;;
54545;SDS011;40444;45.184;9.850;2024-01-25T22:50:38;96.45;;;58.78;;
54545;SDS011;40444;45.184;9.850;2024-01-25T22:53:07;96.78;;;57.83;;
54545;SDS011;40444;45.184;9.850;2024-01-25T22:55:36;93.95;;;57.17;;
54545;SDS011;40444;45.184;9.850;2024-01-25T22:58:05;99.43;;;60.90;;
54545;SDS011;40444;45.184;9.850;2024-01-25T23:00:35;95.75;;;57.88;;
54545;SDS011;40444;45.184;9.850;2024-01-25T23:03:05;104.80;;;64.60;;
54545;SDS011;40444;45.184;9.850;2024-01-25T23:05:34;97.80;;;62.25;;
54545;SDS011;40444;45.184;9.850;2024-01-25T23:08:03;111.95;;;65.32;;
54545;SDS011;40444;45.184;9.850;2024-01-25T23:10:32;112.93;;;67.25;;
54545;SDS011;40444;45.184;9.850;2024-01-25T23:13:01;98.80;;;62.45;;
54545;SDS011;40444;45.184;9.850;2024-01-25T23:15:32;105.78;;;62.33;;
54545;SDS011;40444;45.184;9.850;2024-01-25T23:18:01;104.32;;;63.80;;
54545;SDS011;40444;45.184;9.850;2024-01-25T23:20:30;94.55;;;58.85;;
54545;SDS011;40444;45.184;9.850;2024-01-25T23:22:58;96.97;;;58.63;;
54545;SDS011;40444;45.184;9.850;2024-01-25T23:25:28;90.43;;;56.33;;
54545;SDS011;40444;45.184;9.850;2024-01-25T23:27:57;87.45;;;54.05;;
54545;SDS011;40444;45.184;9.850;2024-01-25T23:30:26;81.43;;;51.42;;
54545;SDS011;40444;45.184;9.850;2024-01-25T23:32:54;78.28;;;49.85;;
54545;SDS011;40444;45.184;9.850;2024-01-25T23:35:23;81.15;;;50.83;;
54545;SDS011;40444;45.184;9.850;2024-01-25T23:37:52;86.25;;;53.17;;
54545;SDS011;40444;45.184;9.850;2024-01-25T23:40:21;92.43;;;54.55;;
54545;SDS011;40444;45.184;9.850;2024-01-25T23:42:50;95.47;;;55.47;;
54545;SDS011;40444;45.184;9.850;2024-01-25T23:45:20;104.63;;;59.55;;
54545;SDS011;40444;45.184;9.850;2024-01-25T23:47:52;104.18;;;62.08;;
54545;SDS011;40444;45.184;9.850;2024-01-25T23:50:26;102.28;;;59.35;;
54545;SDS011;40444;45.184;9.850;2024-01-25T23:52:55;98.20;;;58.05;;
54545;SDS011;40444;45.184;9.850;2024-01-25T23:55:27;104.80;;;60.38;;
54545;SDS011;40444;45.184;9.850;2024-01-25T23:58:00;96.53;;;55.92;;
